createdAt,value
2022-09-11T00:01:09.583Z,97748.78
2022-09-11T00:04:11.365Z,97753.44
2022-09-11T00:07:13.128Z,97753.25
2022-09-11T00:10:15.290Z,97757.25
2022-09-11T00:13:21.674Z,97748.16
2022-09-11T00:16:34.080Z,97748.16
2022-09-11T00:19:36.686Z,97747.84
2022-09-11T00:22:39.834Z,97747.41
2022-09-11T00:25:41.891Z,97738.31
2022-09-11T00:28:50.980Z,97735.50
2022-09-11T00:31:52.924Z,97738.81
2022-09-11T00:34:54.792Z,97735.16
2022-09-11T00:37:57.413Z,97736.97
2022-09-11T00:41:01.148Z,97734.16
2022-09-11T00:44:07.567Z,97738.59
2022-09-11T00:47:09.958Z,97738.13
2022-09-11T00:50:19.542Z,97735.53
2022-09-11T00:53:30.487Z,97737.50
2022-09-11T00:56:38.058Z,97733.19
2022-09-11T00:59:42.160Z,97729.66
2022-09-11T01:02:47.913Z,97726.13
2022-09-11T01:05:56.368Z,97726.47
2022-09-11T01:09:00.595Z,97726.22
2022-09-11T01:12:12.160Z,97730.47
2022-09-11T01:15:50.154Z,97732.84
2022-09-11T01:19:05.903Z,97738.34
2022-09-11T01:22:16.868Z,97741.25
2022-09-11T01:25:23.368Z,97740.09
2022-09-11T01:28:54.416Z,97738.03
2022-09-11T01:32:07.018Z,97735.56
2022-09-11T01:35:24.962Z,97736.88
2022-09-11T01:38:59.596Z,97738.88
2022-09-11T01:42:07.242Z,97732.50
2022-09-11T01:45:10.791Z,97734.19
2022-09-11T01:48:18.706Z,97729.84
2022-09-11T01:51:24.301Z,97718.94
2022-09-11T01:54:43.231Z,97729.97
2022-09-11T01:57:58.066Z,97726.66
2022-09-11T02:01:06.236Z,97726.66
2022-09-11T02:04:22.503Z,97720.78
2022-09-11T02:07:31.911Z,97724.25
2022-09-11T02:10:40.972Z,97726.03
2022-09-11T02:14:16.645Z,97723.75
2022-09-11T02:17:31.763Z,97727.66
2022-09-11T02:20:45.699Z,97724.03
2022-09-11T02:23:50.939Z,97730.25
2022-09-11T02:26:55.991Z,97725.28
2022-09-11T02:30:01.152Z,97729.47
2022-09-11T02:33:47.400Z,97722.91
2022-09-11T02:37:13.700Z,97736.75
2022-09-11T02:40:46.953Z,97719.47
2022-09-11T02:44:21.081Z,97716.00
2022-09-11T02:47:35.450Z,97721.91
2022-09-11T02:50:49.756Z,97720.13
2022-09-11T02:54:21.148Z,97723.09
2022-09-11T02:57:39.619Z,97721.88
2022-09-11T03:00:41.871Z,97709.16
2022-09-11T03:03:46.929Z,97709.59
2022-09-11T03:06:50.950Z,97715.25
2022-09-11T03:09:57.220Z,97707.63
2022-09-11T03:13:00.424Z,97711.72
2022-09-11T03:16:06.611Z,97721.44
2022-09-11T03:19:09.040Z,97716.34
2022-09-11T03:22:14.805Z,97720.28
2022-09-11T03:25:17.964Z,97724.72
2022-09-11T03:28:23.725Z,97709.84
2022-09-11T03:31:26.563Z,97713.84
2022-09-11T03:34:30.038Z,97716.38
2022-09-11T03:37:32.407Z,97714.25
2022-09-11T03:40:41.801Z,97716.50
2022-09-11T03:43:43.854Z,97713.03
2022-09-11T03:46:54.230Z,97717.00
2022-09-11T03:49:57.022Z,97710.75
2022-09-11T03:52:59.153Z,97705.47
2022-09-11T03:56:06.053Z,97714.50
2022-09-11T03:59:18.336Z,97720.25
2022-09-11T04:02:20.765Z,97721.72
2022-09-11T04:05:32.401Z,97716.63
2022-09-11T04:08:41.635Z,97715.31
2022-09-11T04:11:49.843Z,97717.44
2022-09-11T04:15:02.950Z,97711.06
2022-09-11T04:18:07.698Z,97710.88
2022-09-11T04:21:16.378Z,97711.09
2022-09-11T04:24:24.765Z,97715.47
2022-09-11T04:27:27.636Z,97710.53
2022-09-11T04:30:31.038Z,97717.47
2022-09-11T04:33:35.409Z,97712.66
2022-09-11T04:36:38.711Z,97713.22
2022-09-11T04:39:44.620Z,97718.41
2022-09-11T04:42:47.374Z,97717.34
2022-09-11T04:45:50.380Z,97719.28
2022-09-11T04:48:56.502Z,97723.44
2022-09-11T04:52:06.090Z,97718.81
2022-09-11T04:55:10.176Z,97721.75
2022-09-11T04:58:14.833Z,97723.13
2022-09-11T05:01:17.396Z,97721.97
2022-09-11T05:04:27.822Z,97724.59
2022-09-11T05:07:35.463Z,97723.13
2022-09-11T05:10:48.823Z,97725.63
2022-09-11T05:13:52.371Z,97730.94
2022-09-11T05:16:58.701Z,97735.41
2022-09-11T05:20:12.658Z,97742.44
2022-09-11T05:23:19.010Z,97735.75
2022-09-11T05:26:31.399Z,97735.97
2022-09-11T05:29:35.840Z,97730.28
2022-09-11T05:32:44.624Z,97730.94
2022-09-11T05:35:52.806Z,97733.25
2022-09-11T05:39:02.808Z,97732.44
2022-09-11T05:42:05.949Z,97728.56
2022-09-11T05:45:26.000Z,97734.09
2022-09-11T05:48:30.046Z,97721.81
2022-09-11T05:51:37.730Z,97731.09
2022-09-11T05:54:47.280Z,97732.81
2022-09-11T05:57:53.198Z,97720.69
2022-09-11T06:01:12.697Z,97725.97
2022-09-11T06:04:21.674Z,97727.28
2022-09-11T06:07:27.792Z,97734.09
2022-09-11T06:10:32.894Z,97736.84
2022-09-11T06:13:37.865Z,97742.03
2022-09-11T06:16:44.181Z,97741.34
2022-09-11T06:19:50.636Z,97745.44
2022-09-11T06:22:52.945Z,97745.09
2022-09-11T06:26:03.315Z,97750.84
2022-09-11T06:29:11.113Z,97746.63
2022-09-11T06:32:12.980Z,97755.84
2022-09-11T06:35:18.940Z,97756.81
2022-09-11T06:38:21.581Z,97754.19
2022-09-11T06:41:25.691Z,97754.19
2022-09-11T06:44:34.670Z,97757.88
2022-09-11T06:47:40.677Z,97760.78
2022-09-11T06:50:46.294Z,97751.97
2022-09-11T06:53:49.001Z,97751.72
2022-09-11T06:56:54.080Z,97752.84
2022-09-11T06:59:58.160Z,97753.13
2022-09-11T07:03:04.257Z,97760.28
2022-09-11T07:06:06.591Z,97756.44
2022-09-11T07:09:12.037Z,97760.06
2022-09-11T07:12:24.420Z,97764.34
2022-09-11T07:15:27.090Z,97763.84
2022-09-11T07:18:36.507Z,97765.91
2022-09-11T07:21:42.875Z,97755.41
2022-09-11T07:24:47.425Z,97754.06
2022-09-11T07:27:52.315Z,97743.41
2022-09-11T07:31:04.448Z,97749.22
2022-09-11T07:34:07.115Z,97750.94
2022-09-11T07:37:10.318Z,97731.22
2022-09-11T07:40:14.405Z,97736.31
2022-09-11T07:43:16.755Z,97732.44
2022-09-11T07:46:19.863Z,97737.31
2022-09-11T07:49:24.446Z,97730.91
2022-09-11T07:52:27.706Z,97738.97
2022-09-11T07:55:35.656Z,97728.94
2022-09-11T07:58:40.807Z,97735.91
2022-09-11T08:01:44.695Z,97746.13
2022-09-11T08:04:47.554Z,97744.91
2022-09-11T08:07:51.971Z,97745.69
2022-09-11T08:10:58.153Z,97748.13
2022-09-11T08:14:01.630Z,97748.53
2022-09-11T08:17:03.771Z,97757.59
2022-09-11T08:20:07.884Z,97749.41
2022-09-11T08:23:13.694Z,97752.66
2022-09-11T08:26:24.005Z,97756.56
2022-09-11T08:29:28.678Z,97759.00
2022-09-11T08:32:31.832Z,97756.75
2022-09-11T08:35:35.871Z,97761.66
2022-09-11T08:38:40.706Z,97764.94
2022-09-11T08:41:43.595Z,97762.91
2022-09-11T08:44:57.029Z,97762.28
2022-09-11T08:48:07.211Z,97774.06
2022-09-11T08:51:17.624Z,97775.97
2022-09-11T08:54:33.888Z,97770.59
2022-09-11T08:57:57.659Z,97759.72
2022-09-11T09:01:10.957Z,97770.97
2022-09-11T09:04:23.945Z,97775.78
2022-09-11T09:07:26.784Z,97772.84
2022-09-11T09:10:34.607Z,97768.38
2022-09-11T09:14:00.746Z,97774.72
2022-09-11T09:17:10.376Z,97769.84
2022-09-11T09:20:24.421Z,97771.38
2022-09-11T09:23:36.885Z,97770.84
2022-09-11T09:26:42.813Z,97765.56
2022-09-11T09:29:48.127Z,97764.78
2022-09-11T09:33:13.214Z,97769.22
2022-09-11T09:36:25.502Z,97765.91
2022-09-11T09:39:29.829Z,97768.19
2022-09-11T09:42:51.489Z,97784.16
2022-09-11T09:46:27.169Z,97769.00
2022-09-11T09:49:34.629Z,97769.19
2022-09-11T09:52:37.511Z,97773.94
2022-09-11T09:55:40.704Z,97769.41
2022-09-11T09:59:12.239Z,97762.00
2022-09-11T10:03:02.573Z,97774.88
2022-09-11T10:06:05.648Z,97762.84
2022-09-11T10:09:26.246Z,97770.50
2022-09-11T10:12:34.001Z,97773.03
2022-09-11T10:15:39.534Z,97757.00
2022-09-11T10:18:44.285Z,97765.94
2022-09-11T10:21:46.561Z,97754.78
2022-09-11T10:25:12.787Z,97754.09
2022-09-11T10:28:17.824Z,97749.19
2022-09-11T10:31:22.558Z,97748.72
2022-09-11T10:34:29.408Z,97743.84
2022-09-11T10:37:31.755Z,97746.53
2022-09-11T10:40:36.677Z,97739.56
2022-09-11T10:43:42.051Z,97732.69
2022-09-11T10:46:46.386Z,97733.09
2022-09-11T10:49:49.365Z,97737.34
2022-09-11T10:53:10.611Z,97735.47
2022-09-11T10:56:13.855Z,97735.47
2022-09-11T10:59:50.190Z,97734.66
2022-09-11T11:02:56.817Z,97735.69
2022-09-11T11:06:07.203Z,97728.97
2022-09-11T11:09:33.575Z,97728.91
2022-09-11T11:13:13.789Z,97731.69
2022-09-11T11:16:35.229Z,97738.47
2022-09-11T11:19:58.850Z,97735.44
2022-09-11T11:23:30.657Z,97725.41
2022-09-11T11:27:08.184Z,97729.63
2022-09-11T11:30:15.584Z,97723.16
2022-09-11T11:33:42.887Z,97717.06
2022-09-11T11:36:47.036Z,97714.72
2022-09-11T11:40:02.761Z,97725.97
2022-09-11T11:43:08.793Z,97720.75
2022-09-11T11:46:16.077Z,97722.31
2022-09-11T11:49:50.594Z,97717.25
2022-09-11T11:53:27.045Z,97719.41
2022-09-11T11:56:41.017Z,97714.06
2022-09-11T12:00:17.300Z,97717.03
2022-09-11T12:03:51.183Z,97725.31
2022-09-11T12:06:53.263Z,97733.84
2022-09-11T12:09:58.201Z,97743.03
2022-09-11T12:13:03.137Z,97750.44
2022-09-11T12:16:11.842Z,97741.22
2022-09-11T12:19:25.548Z,97733.00
2022-09-11T12:22:38.571Z,97727.50
2022-09-11T12:25:50.295Z,97721.69
2022-09-11T12:29:12.215Z,97725.28
2022-09-11T12:32:19.706Z,97724.13
2022-09-11T12:35:28.650Z,97725.19
2022-09-11T12:38:41.456Z,97721.75
2022-09-11T12:41:46.322Z,97708.22
2022-09-11T12:44:48.853Z,97712.72
2022-09-11T12:47:51.336Z,97714.44
2022-09-11T12:50:55.268Z,97713.31
2022-09-11T12:54:03.774Z,97713.34
2022-09-11T12:57:10.237Z,97696.31
2022-09-11T13:00:24.283Z,97694.72
2022-09-11T13:03:30.671Z,97688.91
2022-09-11T13:06:52.933Z,97689.97
2022-09-11T13:09:57.605Z,97698.28
2022-09-11T13:13:02.928Z,97696.97
2022-09-11T13:16:20.269Z,97693.03
2022-09-11T13:19:23.495Z,97697.03
2022-09-11T13:22:31.403Z,97688.03
2022-09-11T13:25:45.569Z,97682.06
2022-09-11T13:28:52.691Z,97686.72
2022-09-11T13:31:58.064Z,97696.44
2022-09-11T13:35:05.863Z,97700.84
2022-09-11T13:38:19.479Z,97701.28
2022-09-11T13:41:26.271Z,97700.50
2022-09-11T13:44:40.076Z,97692.31
2022-09-11T13:47:42.523Z,97698.56
2022-09-11T13:50:45.430Z,97691.88
2022-09-11T13:54:12.540Z,97676.50
2022-09-11T13:57:18.550Z,97688.22
2022-09-11T14:00:40.264Z,97696.16
2022-09-11T14:03:49.844Z,97701.13
2022-09-11T14:06:51.934Z,97708.88
2022-09-11T14:10:05.085Z,97719.16
2022-09-11T14:13:36.708Z,97712.06
2022-09-11T14:16:46.803Z,97715.19
2022-09-11T14:19:52.073Z,97707.50
2022-09-11T14:22:59.669Z,97716.06
2022-09-11T14:26:16.217Z,97707.75
2022-09-11T14:29:31.071Z,97700.56
2022-09-11T14:32:39.470Z,97716.47
2022-09-11T14:35:43.065Z,97723.16
2022-09-11T14:38:49.177Z,97730.53
2022-09-11T14:41:59.864Z,97739.53
2022-09-11T14:45:25.225Z,97740.31
2022-09-11T14:48:28.830Z,97759.22
2022-09-11T14:51:35.050Z,97765.13
2022-09-11T14:54:37.895Z,97764.25
2022-09-11T14:57:40.987Z,97776.72
2022-09-11T15:00:44.431Z,97769.50
2022-09-11T15:03:48.632Z,97765.06
2022-09-11T15:06:53.530Z,97762.47
2022-09-11T15:09:59.280Z,97755.94
2022-09-11T15:13:04.596Z,97759.84
2022-09-11T15:16:09.882Z,97755.53
2022-09-11T15:19:15.397Z,97754.31
2022-09-11T15:22:18.181Z,97744.06
2022-09-11T15:25:20.238Z,97744.47
2022-09-11T15:28:24.974Z,97750.63
2022-09-11T15:31:30.443Z,97751.66
2022-09-11T15:34:33.509Z,97762.41
2022-09-11T15:37:35.808Z,97747.09
2022-09-11T15:40:39.575Z,97763.38
2022-09-11T15:43:45.975Z,97765.81
2022-09-11T15:46:51.237Z,97767.41
2022-09-11T15:49:57.241Z,97759.94
2022-09-11T15:52:59.472Z,97770.66
2022-09-11T15:56:13.571Z,97777.19
2022-09-11T15:59:16.811Z,97778.28
2022-09-11T16:02:21.021Z,97780.94
2022-09-11T16:05:24.702Z,97784.50
2022-09-11T16:08:28.382Z,97779.19
2022-09-11T16:11:35.457Z,97776.31
2022-09-11T16:14:38.983Z,97770.97
2022-09-11T16:17:42.345Z,97772.47
2022-09-11T16:20:44.704Z,97767.44
2022-09-11T16:23:53.580Z,97775.09
2022-09-11T16:26:59.816Z,97776.00
2022-09-11T16:30:42.071Z,97773.84
2022-09-11T16:33:30.173Z,97773.53
2022-09-11T16:36:41.542Z,97779.84
2022-09-11T16:39:50.393Z,97775.63
2022-09-11T16:42:54.591Z,97782.84
2022-09-11T16:45:59.360Z,97774.66
2022-09-11T16:49:04.365Z,97773.56
2022-09-11T16:52:08.031Z,97783.97
2022-09-11T16:55:11.833Z,97778.28
2022-09-11T16:58:16.733Z,97774.19
2022-09-11T17:01:25.264Z,97777.19
2022-09-11T17:04:28.038Z,97770.28
2022-09-11T17:07:36.298Z,97769.59
2022-09-11T17:10:45.208Z,97766.38
2022-09-11T17:13:48.541Z,97760.22
2022-09-11T17:16:52.337Z,97774.00
2022-09-11T17:19:55.244Z,97769.16
2022-09-11T17:23:02.720Z,97777.19
2022-09-11T17:26:10.117Z,97787.31
2022-09-11T17:29:15.953Z,97801.81
2022-09-11T17:32:28.488Z,97790.16
2022-09-11T17:35:33.503Z,97792.41
2022-09-11T17:38:37.523Z,97799.16
2022-09-11T17:41:43.032Z,97800.88
2022-09-11T17:44:48.405Z,97800.44
2022-09-11T17:47:53.068Z,97816.66
2022-09-11T17:51:25.960Z,97813.19
2022-09-11T17:54:29.017Z,97811.72
2022-09-11T17:57:32.523Z,97821.41
2022-09-11T18:00:35.517Z,97823.84
2022-09-11T18:03:39.741Z,97832.22
2022-09-11T18:07:04.202Z,97826.56
2022-09-11T18:10:06.828Z,97833.34
2022-09-11T18:13:09.825Z,97835.97
2022-09-11T18:16:11.937Z,97832.75
2022-09-11T18:19:16.783Z,97834.47
2022-09-11T18:22:19.903Z,97842.31
2022-09-11T18:25:25.805Z,97844.34
2022-09-11T18:28:29.794Z,97845.91
2022-09-11T18:31:37.275Z,97852.81
2022-09-11T18:34:39.740Z,97859.38
2022-09-11T18:37:43.217Z,97851.94
2022-09-11T18:40:45.345Z,97855.47
2022-09-11T18:43:48.798Z,97860.75
2022-09-11T18:46:54.796Z,97876.94
2022-09-11T18:50:01.146Z,97876.03
2022-09-11T18:53:03.313Z,97875.66
2022-09-11T18:56:09.666Z,97875.00
2022-09-11T18:59:12.723Z,97887.28
2022-09-11T19:02:15.393Z,97877.91
2022-09-11T19:05:19.490Z,97881.34
2022-09-11T19:08:26.439Z,97884.34
2022-09-11T19:11:32.487Z,97879.41
2022-09-11T19:14:36.253Z,97871.78
2022-09-11T19:17:38.927Z,97868.38
2022-09-11T19:20:41.538Z,97880.94
2022-09-11T19:23:45.429Z,97864.28
2022-09-11T19:26:47.966Z,97872.72
2022-09-11T19:29:50.307Z,97876.06
2022-09-11T19:32:52.979Z,97872.50
2022-09-11T19:35:57.728Z,97869.19
2022-09-11T19:39:00.879Z,97879.19
2022-09-11T19:42:04.448Z,97877.00
2022-09-11T19:45:08.571Z,97883.88
2022-09-11T19:48:13.129Z,97888.09
2022-09-11T19:51:24.012Z,97889.25
2022-09-11T19:54:26.215Z,97891.63
2022-09-11T19:57:28.450Z,97887.16
2022-09-11T20:00:31.397Z,97885.88
2022-09-11T20:03:33.378Z,97887.50
2022-09-11T20:06:36.445Z,97880.94
2022-09-11T20:09:39.156Z,97880.34
2022-09-11T20:12:41.402Z,97878.06
2022-09-11T20:15:43.841Z,97880.50
2022-09-11T20:18:46.904Z,97878.22
2022-09-11T20:21:48.896Z,97882.31
2022-09-11T20:24:51.642Z,97877.72
2022-09-11T20:27:54.272Z,97876.09
2022-09-11T20:31:00.509Z,97875.97
2022-09-11T20:34:03.745Z,97874.16
2022-09-11T20:37:10.006Z,97862.66
2022-09-11T20:40:12.529Z,97866.94
2022-09-11T20:43:14.962Z,97870.25
2022-09-11T20:46:18.512Z,97864.97
2022-09-11T20:49:20.769Z,97867.13
2022-09-11T20:52:22.784Z,97868.28
2022-09-11T20:55:24.834Z,97869.97
2022-09-11T20:58:26.946Z,97877.53
2022-09-11T21:01:32.623Z,97871.78
2022-09-11T21:04:34.772Z,97867.31
2022-09-11T21:07:36.826Z,97882.81
2022-09-11T21:10:38.771Z,97879.53
2022-09-11T21:13:42.526Z,97879.53
2022-09-11T21:16:44.623Z,97885.31
2022-09-11T21:19:46.555Z,97890.41
2022-09-11T21:22:48.723Z,97890.41
2022-09-11T21:25:52.744Z,97892.75
2022-09-11T21:28:59.227Z,97891.25
2022-09-11T21:32:01.897Z,97897.22
2022-09-11T21:35:04.340Z,97893.56
2022-09-11T21:38:06.292Z,97891.94
2022-09-11T21:41:10.413Z,97897.69
2022-09-11T21:44:12.249Z,97899.66
2022-09-11T21:47:14.133Z,97901.31
2022-09-11T21:50:21.831Z,97904.63
2022-09-11T21:53:24.906Z,97910.03
2022-09-11T21:56:30.270Z,97906.56
2022-09-11T21:59:32.849Z,97907.25
2022-09-11T22:02:35.011Z,97904.94
2022-09-11T22:05:45.980Z,97904.31
2022-09-11T22:08:47.773Z,97906.22
2022-09-11T22:11:50.174Z,97912.22
2022-09-11T22:14:53.160Z,97918.44
2022-09-11T22:17:55.467Z,97925.00
2022-09-11T22:21:00.751Z,97917.09
2022-09-11T22:24:04.561Z,97914.47
2022-09-11T22:27:07.217Z,97921.03
2022-09-11T22:30:10.549Z,97925.63
2022-09-11T22:33:12.508Z,97922.50
2022-09-11T22:36:18.133Z,97918.25
2022-09-11T22:39:20.189Z,97919.88
2022-09-11T22:42:22.025Z,97910.81
2022-09-11T22:45:23.974Z,97914.47
2022-09-11T22:48:25.969Z,97917.75
2022-09-11T22:51:28.267Z,97915.94
2022-09-11T22:54:30.384Z,97919.75
2022-09-11T22:57:35.105Z,97921.84
2022-09-11T23:00:38.024Z,97917.06
2022-09-11T23:03:40.080Z,97913.13
2022-09-11T23:07:01.587Z,97917.91
2022-09-11T23:10:04.053Z,97917.63
2022-09-11T23:13:06.152Z,97907.88
2022-09-11T23:16:17.861Z,97903.28
2022-09-11T23:19:20.270Z,97910.22
2022-09-11T23:22:23.047Z,97910.84
2022-09-11T23:25:25.659Z,97914.47
2022-09-11T23:28:27.410Z,97914.16
2022-09-11T23:31:31.566Z,97916.94
2022-09-11T23:34:33.707Z,97919.41
2022-09-11T23:37:35.756Z,97923.72
2022-09-11T23:40:38.082Z,97927.59
2022-09-11T23:43:40.300Z,97922.69
2022-09-11T23:46:43.037Z,97926.28
2022-09-11T23:49:44.979Z,97925.28
2022-09-11T23:52:46.882Z,97924.34
2022-09-11T23:55:52.525Z,97918.72
2022-09-11T23:58:54.475Z,97913.78
